Time;durP1;ratioP1;P1;durP2;ratioP2;P2;SDS_P1;SDS_P2;PMS_P1;PMS_P2;Temp;Humidity;BMP_temperature;BMP_pressure;BME280_temperature;BME280_humidity;BME280_pressure;Samples;Min_cycle;Max_cycle;Signal;HPM_P1;HPM_P2
2021/12/07 00:00:54;;;;;;;11.05;9.32;;;;;;;;;;4894726;28;99152;-74
2021/12/07 00:03:21;;;;;;;10.43;9.23;;;;;;;;;;4895148;28;100002;-75
2021/12/07 00:05:48;;;;;;;10.48;9.30;;;;;;;;;;4894630;28;99232;-74
2021/12/07 00:08:14;;;;;;;9.30;8.30;;;;;;;;;;4898054;28;98404;-74
2021/12/07 00:10:42;;;;;;;10.00;8.82;;;;;;;;;;4894464;28;99328;-74
2021/12/07 00:13:09;;;;;;;9.55;8.55;;;;;;;;;;4894022;28;98506;-75
2021/12/07 00:15:37;;;;;;;10.30;9.20;;;;;;;;;;4878164;28;99481;-75
2021/12/07 00:18:04;;;;;;;10.00;8.60;;;;;;;;;;4894856;28;98923;-74
2021/12/07 00:20:31;;;;;;;9.82;8.35;;;;;;;;;;4894717;28;98514;-75
2021/12/07 00:22:59;;;;;;;10.10;9.10;;;;;;;;;;4894853;28;99360;-75
2021/12/07 00:25:25;;;;;;;9.35;8.45;;;;;;;;;;4894066;28;100373;-74
2021/12/07 00:27:52;;;;;;;13.55;9.30;;;;;;;;;;4899416;28;98546;-74
2021/12/07 00:30:19;;;;;;;10.52;8.93;;;;;;;;;;4880541;28;100597;-74
2021/12/07 00:32:52;;;;;;;12.15;9.65;;;;;;;;;;4880763;28;99002;-75
2021/12/07 00:35:34;;;;;;;12.25;9.20;;;;;;;;;;4897843;28;99736;-75
2021/12/07 00:38:05;;;;;;;12.65;10.15;;;;;;;;;;4897443;28;99610;-74
2021/12/07 00:40:33;;;;;;;13.90;10.48;;;;;;;;;;4879718;28;98517;-74
2021/12/07 00:43:00;;;;;;;16.02;11.25;;;;;;;;;;4897614;28;99523;-74
2021/12/07 00:45:31;;;;;;;16.52;11.30;;;;;;;;;;4896563;28;99551;-75
2021/12/07 00:47:58;;;;;;;14.85;10.63;;;;;;;;;;4896998;28;98511;-75
2021/12/07 00:50:25;;;;;;;17.65;12.75;;;;;;;;;;4899617;28;100093;-74
2021/12/07 00:52:52;;;;;;;15.90;11.80;;;;;;;;;;4896384;28;98368;-74
2021/12/07 00:55:21;;;;;;;16.45;12.35;;;;;;;;;;4879965;28;101782;-74
2021/12/07 00:57:52;;;;;;;19.40;13.02;;;;;;;;;;4879272;28;100643;-74
2021/12/07 01:00:20;;;;;;;17.67;12.05;;;;;;;;;;4879539;28;98441;-75
2021/12/07 01:02:47;;;;;;;16.42;12.18;;;;;;;;;;4879426;28;100348;-74
2021/12/07 01:05:22;;;;;;;20.13;13.82;;;;;;;;;;4896211;28;100163;-74
2021/12/07 01:27:04;;;;;;;21.85;15.10;;;;;;;;;;4896455;28;99497;-74
2021/12/07 01:29:31;;;;;;;20.13;14.52;;;;;;;;;;4879324;28;98481;-74
2021/12/07 01:37:27;;;;;;;20.92;15.43;;;;;;;;;;4882294;28;98520;-74
2021/12/07 01:49:34;;;;;;;25.85;16.67;;;;;;;;;;4878702;28;102319;-74
2021/12/07 01:51:05;;;;;;;24.15;16.25;;;;;;;;;;4878588;28;98429;-74
2021/12/07 02:01:49;;;;;;;29.60;17.55;;;;;;;;;;4881661;28;102441;-74
2021/12/07 02:04:16;;;;;;;30.65;18.48;;;;;;;;;;4878613;28;98529;-74
2021/12/07 02:06:42;;;;;;;28.98;18.90;;;;;;;;;;4878565;28;102096;-74
2021/12/07 02:09:11;;;;;;;33.55;18.85;;;;;;;;;;4875511;28;102461;-74
2021/12/07 02:11:45;;;;;;;32.75;18.42;;;;;;;;;;4878498;28;98393;-74
2021/12/07 02:14:16;;;;;;;34.20;19.00;;;;;;;;;;4886182;28;101973;-74
2021/12/07 02:16:50;;;;;;;34.20;18.90;;;;;;;;;;4893951;28;101539;-73
2021/12/07 02:19:18;;;;;;;36.25;18.27;;;;;;;;;;4894383;28;98726;-74
2021/12/07 02:21:45;;;;;;;44.83;19.75;;;;;;;;;;4897020;28;101977;-74
2021/12/07 02:24:19;;;;;;;31.33;17.75;;;;;;;;;;4894275;28;98548;-74
2021/12/07 02:26:47;;;;;;;35.78;18.70;;;;;;;;;;4894364;28;100434;-74
2021/12/07 02:29:14;;;;;;;33.55;17.73;;;;;;;;;;4878030;28;100556;-74
2021/12/07 02:31:41;;;;;;;47.65;19.35;;;;;;;;;;4894086;28;98607;-74
2021/12/07 02:34:07;;;;;;;32.38;17.17;;;;;;;;;;4893340;28;101211;-74
2021/12/07 02:36:34;;;;;;;36.35;17.30;;;;;;;;;;4893645;28;102231;-74
2021/12/07 02:39:03;;;;;;;30.50;16.75;;;;;;;;;;4894324;28;98565;-74
2021/12/07 02:41:30;;;;;;;39.25;18.20;;;;;;;;;;4895179;28;99376;-74
2021/12/07 02:43:56;;;;;;;29.60;16.40;;;;;;;;;;4896978;28;100499;-74
2021/12/07 02:46:23;;;;;;;37.22;16.48;;;;;;;;;;4893986;28;101023;-73
2021/12/07 02:48:53;;;;;;;32.45;15.77;;;;;;;;;;4893531;28;102037;-73
2021/12/07 02:51:19;;;;;;;30.48;15.23;;;;;;;;;;4893881;28;98196;-72
2021/12/07 02:53:47;;;;;;;34.53;13.77;;;;;;;;;;4893500;28;101566;-73
2021/12/07 02:56:14;;;;;;;42.75;14.88;;;;;;;;;;4893338;28;101957;-72
2021/12/07 02:58:43;;;;;;;30.48;13.30;;;;;;;;;;4893355;28;99241;-72
2021/12/07 03:01:17;;;;;;;34.05;13.88;;;;;;;;;;4878564;28;102015;-72
2021/12/07 03:04:02;;;;;;;32.03;12.68;;;;;;;;;;4893530;28;102191;-72
2021/12/07 03:06:46;;;;;;;30.73;12.57;;;;;;;;;;4896789;28;98604;-72
2021/12/07 03:09:45;;;;;;;29.40;10.75;;;;;;;;;;4893244;28;102144;-73
2021/12/07 03:26:06;;;;;;;29.17;7.55;;;;;;;;;;4893421;28;102316;-73
2021/12/07 03:28:38;;;;;;;29.27;6.47;;;;;;;;;;4894179;28;98490;-73
2021/12/07 03:31:05;;;;;;;13.35;5.38;;;;;;;;;;4897158;28;101727;-73
2021/12/07 03:33:32;;;;;;;28.00;5.80;;;;;;;;;;4893552;28;98474;-74
2021/12/07 03:36:00;;;;;;;24.60;4.88;;;;;;;;;;4893821;28;101891;-73
2021/12/07 03:38:27;;;;;;;19.00;4.65;;;;;;;;;;4893814;28;101377;-72
2021/12/07 03:40:55;;;;;;;19.08;4.35;;;;;;;;;;4894069;28;98505;-72
2021/12/07 03:43:22;;;;;;;14.57;3.88;;;;;;;;;;4894550;28;101773;-72
2021/12/07 03:45:49;;;;;;;18.95;4.00;;;;;;;;;;4893425;28;102290;-72
2021/12/07 03:48:16;;;;;;;14.68;3.50;;;;;;;;;;4893940;28;98728;-72
2021/12/07 03:50:43;;;;;;;16.85;2.95;;;;;;;;;;4894959;28;99439;-72
2021/12/07 03:53:10;;;;;;;14.73;3.38;;;;;;;;;;4896821;28;100595;-71
2021/12/07 03:55:37;;;;;;;13.65;2.97;;;;;;;;;;4895277;28;98912;-72
2021/12/07 03:58:04;;;;;;;13.77;3.13;;;;;;;;;;4894651;28;99258;-72
2021/12/07 04:00:33;;;;;;;13.18;2.47;;;;;;;;;;4893619;28;98474;-72
2021/12/07 04:03:03;;;;;;;6.43;2.30;;;;;;;;;;4897093;28;102114;-72
2021/12/07 04:05:30;;;;;;;14.30;2.72;;;;;;;;;;4896846;28;100605;-72
2021/12/07 04:07:56;;;;;;;13.10;3.28;;;;;;;;;;4898966;28;97658;-72
2021/12/07 04:10:25;;;;;;;10.88;2.78;;;;;;;;;;4897011;28;101362;-72
2021/12/07 04:12:52;;;;;;;17.63;2.92;;;;;;;;;;4896435;28;102110;-72
2021/12/07 04:15:19;;;;;;;14.18;2.72;;;;;;;;;;4883433;28;99233;-71
2021/12/07 04:17:47;;;;;;;16.13;2.58;;;;;;;;;;4880538;28;100382;-71
2021/12/07 04:20:16;;;;;;;11.75;2.40;;;;;;;;;;4881045;28;98408;-71
2021/12/07 04:22:43;;;;;;;12.23;2.60;;;;;;;;;;4880838;28;101470;-71
2021/12/07 04:25:10;;;;;;;16.00;2.58;;;;;;;;;;4897640;28;99775;-71
2021/12/07 04:27:39;;;;;;;19.48;2.80;;;;;;;;;;4897692;28;98434;-71
2021/12/07 04:30:08;;;;;;;11.88;2.50;;;;;;;;;;4898024;28;99640;-71
2021/12/07 04:32:35;;;;;;;17.75;2.72;;;;;;;;;;4898104;28;97496;-71
2021/12/07 04:35:02;;;;;;;22.48;3.10;;;;;;;;;;4884147;28;98502;-71
2021/12/07 04:37:31;;;;;;;7.82;2.63;;;;;;;;;;4897138;28;99768;-71
2021/12/07 04:39:57;;;;;;;16.50;2.53;;;;;;;;;;4897353;28;99221;-71
2021/12/07 04:42:25;;;;;;;12.45;2.60;;;;;;;;;;4897334;28;100056;-71
2021/12/07 04:44:56;;;;;;;11.85;2.72;;;;;;;;;;4897394;28;99657;-71
2021/12/07 04:47:34;;;;;;;16.35;3.10;;;;;;;;;;4897748;28;98423;-71
2021/12/07 04:50:25;;;;;;;15.40;2.92;;;;;;;;;;4897519;28;99341;-71
2021/12/07 04:58:17;;;;;;;17.08;3.03;;;;;;;;;;4900682;28;99471;-71
2021/12/07 05:00:43;;;;;;;15.32;2.70;;;;;;;;;;4897639;28;98387;-71
2021/12/07 05:03:12;;;;;;;12.95;2.50;;;;;;;;;;4896969;28;99454;-71
2021/12/07 05:05:46;;;;;;;10.43;3.05;;;;;;;;;;4896641;28;100524;-71
2021/12/07 05:08:16;;;;;;;15.27;3.20;;;;;;;;;;4897429;28;98332;-71
2021/12/07 05:24:07;;;;;;;11.27;2.88;;;;;;;;;;4897374;28;99416;-71
2021/12/07 05:37:56;;;;;;;6.65;2.30;;;;;;;;;;4897035;28;98198;-71
2021/12/07 05:40:25;;;;;;;12.23;2.67;;;;;;;;;;4897080;28;99381;-71
2021/12/07 05:42:52;;;;;;;11.48;2.80;;;;;;;;;;4879575;28;99517;-70
2021/12/07 05:45:24;;;;;;;10.25;3.10;;;;;;;;;;4900039;28;98321;-71
2021/12/07 05:47:50;;;;;;;12.45;3.55;;;;;;;;;;4896470;28;99854;-71
2021/12/07 05:50:19;;;;;;;18.80;3.78;;;;;;;;;;4897491;28;97678;-71
2021/12/07 05:52:46;;;;;;;12.23;3.67;;;;;;;;;;4896883;28;98724;-71
2021/12/07 05:55:12;;;;;;;29.52;3.65;;;;;;;;;;4895126;28;100775;-72
2021/12/07 05:57:39;;;;;;;18.35;4.32;;;;;;;;;;4895854;28;99094;-71
2021/12/07 06:00:07;;;;;;;17.20;3.63;;;;;;;;;;4895867;28;100207;-71
2021/12/07 06:02:38;;;;;;;15.98;4.25;;;;;;;;;;4894793;28;99350;-71
2021/12/07 06:05:05;;;;;;;16.15;4.35;;;;;;;;;;4896588;28;98551;-71
2021/12/07 06:07:31;;;;;;;18.48;3.80;;;;;;;;;;4899515;28;99863;-72
2021/12/07 06:09:57;;;;;;;20.15;4.20;;;;;;;;;;4896003;28;98451;-71
2021/12/07 06:12:24;;;;;;;13.18;3.80;;;;;;;;;;4895915;28;99246;-71
2021/12/07 06:14:54;;;;;;;27.33;4.60;;;;;;;;;;4896540;28;98845;-71
2021/12/07 06:17:21;;;;;;;27.33;5.35;;;;;;;;;;4896448;28;98405;-72
2021/12/07 06:19:48;;;;;;;13.50;4.05;;;;;;;;;;4896203;28;99647;-72
2021/12/07 06:22:14;;;;;;;24.15;5.03;;;;;;;;;;4895380;28;100481;-72
2021/12/07 06:24:40;;;;;;;16.90;5.03;;;;;;;;;;4896343;28;98443;-73
2021/12/07 06:27:07;;;;;;;20.00;4.50;;;;;;;;;;4896388;28;99739;-72
2021/12/07 06:29:33;;;;;;;18.40;4.10;;;;;;;;;;4899154;28;100066;-72
2021/12/07 06:31:59;;;;;;;29.58;5.15;;;;;;;;;;4896225;28;99471;-72
2021/12/07 06:34:26;;;;;;;22.73;4.70;;;;;;;;;;4895452;28;99704;-72
2021/12/07 06:36:52;;;;;;;20.85;5.13;;;;;;;;;;4896158;28;98395;-72
2021/12/07 06:39:20;;;;;;;20.23;5.32;;;;;;;;;;4896549;28;99422;-71
2021/12/07 06:41:47;;;;;;;20.73;5.15;;;;;;;;;;4894459;28;99769;-72
2021/12/07 06:44:13;;;;;;;23.25;6.07;;;;;;;;;;4895835;28;98975;-71
2021/12/07 06:46:40;;;;;;;25.85;6.80;;;;;;;;;;4895283;28;99505;-71
2021/12/07 06:49:06;;;;;;;18.75;6.85;;;;;;;;;;4877261;28;102186;-71
2021/12/07 06:51:32;;;;;;;15.52;6.55;;;;;;;;;;4895349;28;98941;-72
2021/12/07 06:54:04;;;;;;;23.92;6.30;;;;;;;;;;4895231;28;100312;-72
2021/12/07 06:56:30;;;;;;;11.30;5.93;;;;;;;;;;4895589;28;98392;-71
2021/12/07 06:58:57;;;;;;;19.90;5.93;;;;;;;;;;4895653;28;99612;-71
2021/12/07 07:01:24;;;;;;;17.92;6.13;;;;;;;;;;4895116;28;100469;-71
2021/12/07 07:03:50;;;;;;;27.08;6.88;;;;;;;;;;4896281;28;97649;-71
2021/12/07 07:06:17;;;;;;;23.17;7.32;;;;;;;;;;4895871;28;98713;-71
2021/12/07 07:08:44;;;;;;;26.15;9.27;;;;;;;;;;4895055;28;99075;-71
2021/12/07 07:11:10;;;;;;;23.70;8.93;;;;;;;;;;4898369;28;99257;-71
2021/12/07 07:13:42;;;;;;;25.33;9.95;;;;;;;;;;4895135;28;99693;-72
2021/12/07 07:16:08;;;;;;;32.50;8.63;;;;;;;;;;4895757;28;98705;-71
2021/12/07 07:18:34;;;;;;;25.13;7.40;;;;;;;;;;4895420;28;100313;-72
2021/12/07 07:21:01;;;;;;;33.67;6.70;;;;;;;;;;4894891;28;99627;-73
2021/12/07 07:23:28;;;;;;;16.30;6.65;;;;;;;;;;4895197;28;98471;-73
2021/12/07 07:25:55;;;;;;;24.80;6.95;;;;;;;;;;4895519;28;99469;-73
2021/12/07 07:28:23;;;;;;;19.08;6.28;;;;;;;;;;4895269;28;99667;-70
2021/12/07 07:30:49;;;;;;;12.52;5.95;;;;;;;;;;4895453;28;98375;-72
2021/12/07 07:33:16;;;;;;;16.10;6.43;;;;;;;;;;4897977;28;99931;-70
2021/12/07 07:35:42;;;;;;;11.80;6.30;;;;;;;;;;4894865;28;99191;-73
2021/12/07 07:38:09;;;;;;;14.18;6.75;;;;;;;;;;4898573;28;99404;-72
2021/12/07 07:40:35;;;;;;;16.52;6.80;;;;;;;;;;4898376;28;99413;-73
2021/12/07 07:43:02;;;;;;;12.38;6.78;;;;;;;;;;4898376;28;98347;-74
2021/12/07 07:45:41;;;;;;;16.00;7.80;;;;;;;;;;4881446;28;102042;-74
2021/12/07 07:48:12;;;;;;;28.38;8.38;;;;;;;;;;4898061;28;100043;-73
2021/12/07 07:50:38;;;;;;;22.90;8.02;;;;;;;;;;4898264;28;98462;-72
2021/12/07 07:53:06;;;;;;;21.80;7.65;;;;;;;;;;4899028;28;99817;-71
2021/12/07 07:55:33;;;;;;;9.93;6.35;;;;;;;;;;4884426;28;100535;-73
2021/12/07 07:57:59;;;;;;;21.15;7.88;;;;;;;;;;4898336;28;99664;-72
2021/12/07 08:00:26;;;;;;;13.48;7.03;;;;;;;;;;4897290;28;101211;-72
2021/12/07 08:02:52;;;;;;;16.50;6.95;;;;;;;;;;4885300;28;98532;-74
2021/12/07 08:05:19;;;;;;;22.88;6.85;;;;;;;;;;4879146;28;98910;-72
2021/12/07 08:07:47;;;;;;;16.05;6.30;;;;;;;;;;4879087;28;98701;-73
2021/12/07 08:10:20;;;;;;;19.08;7.88;;;;;;;;;;4879238;28;98350;-71
2021/12/07 08:12:48;;;;;;;21.33;9.02;;;;;;;;;;4876131;28;99378;-72
2021/12/07 08:15:17;;;;;;;18.67;7.68;;;;;;;;;;4875784;28;102369;-72
2021/12/07 08:17:44;;;;;;;28.70;8.20;;;;;;;;;;4882048;28;97720;-72
2021/12/07 08:20:10;;;;;;;12.00;7.85;;;;;;;;;;4877662;28;100025;-72
2021/12/07 08:22:37;;;;;;;15.90;8.10;;;;;;;;;;4879248;28;98534;-71
2021/12/07 08:25:03;;;;;;;18.75;7.65;;;;;;;;;;4878653;28;99541;-76
2021/12/07 08:27:30;;;;;;;22.35;8.00;;;;;;;;;;4878560;28;100171;-72
2021/12/07 08:29:56;;;;;;;17.52;8.40;;;;;;;;;;4878378;28;98502;-71
2021/12/07 08:32:23;;;;;;;24.15;8.23;;;;;;;;;;4878766;28;98813;-72
2021/12/07 08:34:49;;;;;;;18.42;7.45;;;;;;;;;;4878642;28;99018;-77
2021/12/07 08:37:16;;;;;;;32.45;8.63;;;;;;;;;;4892040;28;99034;-72
2021/12/07 08:39:42;;;;;;;21.98;8.25;;;;;;;;;;4900479;28;99548;-73
2021/12/07 08:42:09;;;;;;;25.02;7.57;;;;;;;;;;4898194;28;97684;-71
2021/12/07 08:44:35;;;;;;;18.88;7.07;;;;;;;;;;4897274;28;98710;-70
2021/12/07 08:47:02;;;;;;;23.95;7.13;;;;;;;;;;4896624;28;99589;-72
2021/12/07 08:49:28;;;;;;;16.75;6.25;;;;;;;;;;4896365;28;99192;-72
2021/12/07 08:51:55;;;;;;;16.20;7.00;;;;;;;;;;4897366;28;100007;-73
2021/12/07 08:54:31;;;;;;;22.88;6.70;;;;;;;;;;4897222;28;98691;-72
2021/12/07 08:59:45;;;;;;;27.85;6.68;;;;;;;;;;4900243;28;99528;-72
2021/12/07 09:02:12;;;;;;;24.17;6.70;;;;;;;;;;4897424;28;98356;-72
2021/12/07 09:04:39;;;;;;;23.98;6.68;;;;;;;;;;4897403;28;99614;-71
2021/12/07 09:07:06;;;;;;;17.95;6.55;;;;;;;;;;4897608;28;99072;-72
2021/12/07 09:09:33;;;;;;;23.00;7.40;;;;;;;;;;4897096;28;98300;-71
2021/12/07 09:12:00;;;;;;;26.30;7.65;;;;;;;;;;4897366;28;99932;-71
2021/12/07 09:14:30;;;;;;;22.95;7.32;;;;;;;;;;4896181;28;100765;-72
2021/12/07 09:16:57;;;;;;;21.20;6.60;;;;;;;;;;4897011;28;98318;-71
2021/12/07 09:19:23;;;;;;;23.80;7.32;;;;;;;;;;4897151;28;99461;-71
2021/12/07 09:21:50;;;;;;;24.95;7.10;;;;;;;;;;4882664;28;100932;-72
2021/12/07 09:24:16;;;;;;;25.45;7.07;;;;;;;;;;4896730;28;99527;-72
2021/12/07 09:26:43;;;;;;;26.23;6.53;;;;;;;;;;4896794;28;99174;-71
2021/12/07 09:29:09;;;;;;;14.40;5.90;;;;;;;;;;4896907;28;98418;-71
2021/12/07 09:31:36;;;;;;;23.85;6.95;;;;;;;;;;4897504;28;99438;-71
2021/12/07 09:34:03;;;;;;;15.05;6.05;;;;;;;;;;4896816;28;99626;-71
2021/12/07 09:36:30;;;;;;;18.25;7.47;;;;;;;;;;4896966;28;98564;-72
2021/12/07 09:38:56;;;;;;;26.27;8.00;;;;;;;;;;4896083;28;99525;-73
2021/12/07 09:41:23;;;;;;;26.15;7.60;;;;;;;;;;4896407;28;100016;-73
2021/12/07 09:43:49;;;;;;;31.80;9.50;;;;;;;;;;4900059;28;98385;-71
2021/12/07 09:46:16;;;;;;;27.13;8.60;;;;;;;;;;4896628;28;99985;-70
2021/12/07 09:48:43;;;;;;;24.80;9.57;;;;;;;;;;4896812;28;98410;-70
2021/12/07 09:51:11;;;;;;;28.65;9.65;;;;;;;;;;4896853;28;99407;-72
2021/12/07 09:53:38;;;;;;;29.35;10.00;;;;;;;;;;4895940;28;98762;-72
2021/12/07 09:56:09;;;;;;;32.10;11.18;;;;;;;;;;4896599;28;97629;-72
2021/12/07 09:58:37;;;;;;;25.13;10.60;;;;;;;;;;4895352;28;98695;-72
2021/12/07 10:01:05;;;;;;;31.40;10.00;;;;;;;;;;4895541;28;99704;-72
2021/12/07 10:03:31;;;;;;;27.98;9.82;;;;;;;;;;4878129;28;99194;-72
2021/12/07 10:05:58;;;;;;;39.83;10.48;;;;;;;;;;4898836;28;100039;-72
2021/12/07 10:08:25;;;;;;;30.38;11.52;;;;;;;;;;4895760;28;98356;-71
2021/12/07 10:11:00;;;;;;;35.78;12.35;;;;;;;;;;4895728;28;99819;-72
2021/12/07 10:13:28;;;;;;;27.02;10.48;;;;;;;;;;4895362;28;99553;-72
2021/12/07 10:15:56;;;;;;;41.17;12.40;;;;;;;;;;4895806;28;98311;-72
2021/12/07 10:18:24;;;;;;;34.13;11.77;;;;;;;;;;4895399;28;99903;-72
2021/12/07 10:21:13;;;;;;;42.05;11.85;;;;;;;;;;4895825;28;98734;-71
2021/12/07 10:23:41;;;;;;;33.15;12.52;;;;;;;;;;4878475;28;98411;-71
2021/12/07 10:26:12;;;;;;;39.88;11.77;;;;;;;;;;4895546;28;99798;-71
2021/12/07 10:28:41;;;;;;;34.92;12.02;;;;;;;;;;4897168;28;100247;-71
2021/12/07 10:31:10;;;;;;;36.13;12.98;;;;;;;;;;4895085;28;101084;-71
2021/12/07 10:33:44;;;;;;;31.00;10.85;;;;;;;;;;4895295;28;99959;-71
2021/12/07 10:36:13;;;;;;;34.75;11.90;;;;;;;;;;4895399;28;98333;-71
2021/12/07 10:38:41;;;;;;;34.38;12.23;;;;;;;;;;4895172;28;99492;-72
2021/12/07 10:41:09;;;;;;;31.33;11.57;;;;;;;;;;4894772;28;99880;-70
2021/12/07 10:43:39;;;;;;;40.28;11.95;;;;;;;;;;4894988;28;98462;-71
2021/12/07 10:46:41;;;;;;;41.88;12.00;;;;;;;;;;4895720;28;99821;-72
2021/12/07 10:49:22;;;;;;;36.40;13.05;;;;;;;;;;4781059;29;100338;-71
2021/12/07 10:51:57;;;;;;;25.65;10.68;;;;;;;;;;4886202;28;98389;-71
2021/12/07 10:54:24;;;;;;;36.13;11.98;;;;;;;;;;4894171;28;100456;-70
2021/12/07 10:56:51;;;;;;;33.40;10.70;;;;;;;;;;4895115;28;98698;-70
2021/12/07 10:59:17;;;;;;;32.85;11.05;;;;;;;;;;4894921;28;100074;-72
2021/12/07 11:01:45;;;;;;;23.67;10.88;;;;;;;;;;4894619;28;99246;-73
2021/12/07 11:04:21;;;;;;;27.73;10.30;;;;;;;;;;4894976;28;98436;-72
2021/12/07 11:07:20;;;;;;;34.53;11.80;;;;;;;;;;4895110;28;99401;-72
2021/12/07 11:09:58;;;;;;;32.25;10.55;;;;;;;;;;4832049;28;99996;-72
2021/12/07 11:12:26;;;;;;;34.13;10.35;;;;;;;;;;4897763;28;97669;-80
2021/12/07 11:14:56;;;;;;;31.52;10.55;;;;;;;;;;4894032;28;100065;-74
2021/12/07 11:17:24;;;;;;;32.58;10.73;;;;;;;;;;4895204;28;98406;-75
2021/12/07 11:19:52;;;;;;;28.02;10.18;;;;;;;;;;4894931;28;99226;-71
2021/12/07 11:22:20;;;;;;;31.85;10.52;;;;;;;;;;4894331;28;100104;-74
2021/12/07 11:24:47;;;;;;;25.67;9.88;;;;;;;;;;4877644;28;98445;-76
2021/12/07 11:30:05;;;;;;;31.52;10.43;;;;;;;;;;4894207;28;99913;-74
2021/12/07 11:32:32;;;;;;;27.73;10.18;;;;;;;;;;4894524;28;98399;-74
2021/12/07 11:35:10;;;;;;;25.20;9.40;;;;;;;;;;4897509;28;99487;-74
2021/12/07 11:37:37;;;;;;;27.27;9.73;;;;;;;;;;4895952;28;97530;-74
2021/12/07 11:40:06;;;;;;;25.58;10.25;;;;;;;;;;4895286;28;98683;-74
2021/12/07 11:42:37;;;;;;;30.67;10.80;;;;;;;;;;4894136;28;99458;-74
2021/12/07 11:45:23;;;;;;;29.45;8.68;;;;;;;;;;4894023;28;99159;-74
2021/12/07 11:47:55;;;;;;;36.03;9.30;;;;;;;;;;4894747;28;100564;-74
2021/12/07 11:50:31;;;;;;;25.65;8.10;;;;;;;;;;4894975;28;99606;-74
2021/12/07 11:53:05;;;;;;;29.08;9.40;;;;;;;;;;4894850;28;98588;-74
2021/12/07 11:55:32;;;;;;;28.27;9.13;;;;;;;;;;4895262;28;98881;-74
2021/12/07 11:57:59;;;;;;;21.98;7.45;;;;;;;;;;4897828;28;99665;-73
2021/12/07 12:00:34;;;;;;;26.27;7.40;;;;;;;;;;4894681;28;99519;-74
2021/12/07 12:03:05;;;;;;;20.20;8.05;;;;;;;;;;4895140;28;98493;-74
2021/12/07 12:05:31;;;;;;;22.65;7.70;;;;;;;;;;4895025;28;98390;-73
2021/12/07 12:07:58;;;;;;;25.27;8.77;;;;;;;;;;4894983;28;99312;-74
2021/12/07 12:10:26;;;;;;;19.55;8.13;;;;;;;;;;4893964;28;100405;-71
2021/12/07 12:13:11;;;;;;;19.23;7.38;;;;;;;;;;4894592;28;98413;-71
2021/12/07 12:15:52;;;;;;;18.00;7.13;;;;;;;;;;4893723;28;99532;-71
2021/12/07 12:18:38;;;;;;;23.38;7.57;;;;;;;;;;4894442;28;99518;-72
2021/12/07 12:21:19;;;;;;;16.25;7.40;;;;;;;;;;4897698;28;99795;-71
2021/12/07 12:23:58;;;;;;;17.88;6.72;;;;;;;;;;4897510;28;99932;-71
2021/12/07 12:26:30;;;;;;;18.58;7.05;;;;;;;;;;4898185;28;98356;-71
2021/12/07 12:28:58;;;;;;;17.60;6.80;;;;;;;;;;4898487;28;99366;-72
2021/12/07 12:31:54;;;;;;;17.73;7.85;;;;;;;;;;4897278;28;99187;-75
2021/12/07 12:34:22;;;;;;;17.73;6.85;;;;;;;;;;4873555;28;98508;-74
2021/12/07 12:37:06;;;;;;;22.88;6.90;;;;;;;;;;4897377;28;100217;-74
2021/12/07 12:39:41;;;;;;;13.00;6.15;;;;;;;;;;4897399;28;99624;-73
2021/12/07 12:42:08;;;;;;;17.17;8.02;;;;;;;;;;4897767;28;99295;-74
2021/12/07 12:44:35;;;;;;;22.55;6.50;;;;;;;;;;4900612;28;99515;-73
2021/12/07 12:47:05;;;;;;;20.92;6.82;;;;;;;;;;4880846;28;98401;-73
2021/12/07 12:49:39;;;;;;;22.08;6.95;;;;;;;;;;4897622;28;99860;-72
2021/12/07 12:52:06;;;;;;;21.42;7.25;;;;;;;;;;4897045;28;100353;-72
2021/12/07 12:54:39;;;;;;;19.60;6.78;;;;;;;;;;4897689;28;97630;-73
2021/12/07 12:57:14;;;;;;;16.63;5.75;;;;;;;;;;4897648;28;98932;-72
2021/12/07 12:59:41;;;;;;;15.32;6.15;;;;;;;;;;4896972;28;99869;-72
2021/12/07 13:02:08;;;;;;;21.73;5.65;;;;;;;;;;4896962;28;99237;-72
2021/12/07 13:04:35;;;;;;;16.55;5.82;;;;;;;;;;4900304;28;100143;-72
2021/12/07 13:09:40;;;;;;;13.20;6.03;;;;;;;;;;4897589;28;99349;-72
2021/12/07 13:12:08;;;;;;;17.70;5.80;;;;;;;;;;4896901;28;99959;-72
2021/12/07 13:14:34;;;;;;;15.65;5.53;;;;;;;;;;4897241;28;98243;-74
2021/12/07 13:17:14;;;;;;;13.45;5.50;;;;;;;;;;4897397;28;99392;-73
2021/12/07 13:19:59;;;;;;;19.42;5.18;;;;;;;;;;4897149;28;99068;-73
2021/12/07 13:22:33;;;;;;;15.98;6.20;;;;;;;;;;4897294;28;98349;-73
2021/12/07 13:25:08;;;;;;;15.80;6.25;;;;;;;;;;4897198;28;99434;-73
2021/12/07 13:27:36;;;;;;;10.45;5.57;;;;;;;;;;4899609;28;100202;-73
2021/12/07 13:30:04;;;;;;;16.38;5.78;;;;;;;;;;4896627;28;100104;-73
2021/12/07 13:32:30;;;;;;;14.18;5.03;;;;;;;;;;4893533;28;99665;-73
2021/12/07 13:35:01;;;;;;;16.30;5.50;;;;;;;;;;4877327;28;98318;-73
2021/12/07 13:37:46;;;;;;;17.88;5.88;;;;;;;;;;4878017;28;99540;-73
2021/12/07 13:40:20;;;;;;;17.13;5.70;;;;;;;;;;4877209;28;99533;-73
2021/12/07 13:42:53;;;;;;;14.93;5.30;;;;;;;;;;4878000;28;98286;-73
2021/12/07 13:45:20;;;;;;;11.70;5.53;;;;;;;;;;4878239;28;99496;-73
2021/12/07 13:47:52;;;;;;;13.13;5.30;;;;;;;;;;4877213;28;99630;-73
2021/12/07 13:50:24;;;;;;;21.40;5.85;;;;;;;;;;4880799;28;99110;-72
2021/12/07 13:52:51;;;;;;;21.88;6.57;;;;;;;;;;4876069;28;100600;-72
2021/12/07 13:55:19;;;;;;;10.65;5.00;;;;;;;;;;4877539;28;98487;-73
2021/12/07 13:57:47;;;;;;;16.88;5.40;;;;;;;;;;4877501;28;99568;-73
2021/12/07 14:00:17;;;;;;;16.88;5.75;;;;;;;;;;4877001;28;99488;-73
2021/12/07 14:02:49;;;;;;;20.10;5.70;;;;;;;;;;4877638;28;98495;-73
2021/12/07 14:05:18;;;;;;;17.63;5.35;;;;;;;;;;4877403;28;99407;-71
2021/12/07 14:07:45;;;;;;;16.17;5.40;;;;;;;;;;4877224;28;99194;-71
2021/12/07 14:10:14;;;;;;;20.58;6.15;;;;;;;;;;4877735;28;97655;-73
2021/12/07 14:12:41;;;;;;;11.65;5.88;;;;;;;;;;4880202;28;99310;-72
2021/12/07 14:15:12;;;;;;;12.50;5.55;;;;;;;;;;4877131;28;98465;-72
2021/12/07 14:17:40;;;;;;;16.63;6.43;;;;;;;;;;4876847;28;99490;-71
2021/12/07 14:20:06;;;;;;;15.00;5.95;;;;;;;;;;4876504;28;99568;-73
2021/12/07 14:22:32;;;;;;;12.38;6.03;;;;;;;;;;4877211;28;98456;-73
2021/12/07 14:24:59;;;;;;;13.45;5.60;;;;;;;;;;4877081;28;99796;-73
2021/12/07 14:27:26;;;;;;;21.77;6.25;;;;;;;;;;4876971;28;99682;-73
2021/12/07 14:29:53;;;;;;;13.88;5.55;;;;;;;;;;4877196;28;98547;-73
2021/12/07 14:32:19;;;;;;;11.63;5.25;;;;;;;;;;4877029;28;99531;-73
2021/12/07 14:34:46;;;;;;;16.60;5.63;;;;;;;;;;4880152;28;98731;-73
2021/12/07 14:37:12;;;;;;;13.38;5.25;;;;;;;;;;4876993;28;98567;-73
2021/12/07 14:39:40;;;;;;;18.27;6.10;;;;;;;;;;4876651;28;99739;-73
2021/12/07 14:42:14;;;;;;;16.42;5.35;;;;;;;;;;4876436;28;99196;-73
2021/12/07 14:44:41;;;;;;;14.57;6.00;;;;;;;;;;4876742;28;100061;-73
2021/12/07 14:47:08;;;;;;;15.68;5.20;;;;;;;;;;4875267;28;99772;-73
2021/12/07 14:49:36;;;;;;;15.60;5.47;;;;;;;;;;4876874;28;98383;-73
2021/12/07 14:52:12;;;;;;;15.57;5.43;;;;;;;;;;4876624;28;99494;-73
2021/12/07 14:54:39;;;;;;;17.08;5.55;;;;;;;;;;4876463;28;99754;-72
2021/12/07 14:57:06;;;;;;;11.15;5.43;;;;;;;;;;4879715;28;100495;-73
2021/12/07 14:59:36;;;;;;;15.27;5.05;;;;;;;;;;4876282;28;98968;-71
2021/12/07 15:02:03;;;;;;;13.85;5.30;;;;;;;;;;4876564;28;98464;-73
2021/12/07 15:04:30;;;;;;;23.15;5.47;;;;;;;;;;4876882;28;99483;-72
2021/12/07 15:07:01;;;;;;;15.48;5.60;;;;;;;;;;4875962;28;100492;-73
2021/12/07 15:09:31;;;;;;;15.88;5.03;;;;;;;;;;4876653;28;98464;-71
2021/12/07 15:11:58;;;;;;;14.57;4.70;;;;;;;;;;4876482;28;99381;-73
2021/12/07 15:14:25;;;;;;;18.95;4.80;;;;;;;;;;4875128;28;99189;-71
2021/12/07 15:16:56;;;;;;;16.92;5.15;;;;;;;;;;4880700;28;98528;-71
2021/12/07 15:19:23;;;;;;;11.30;5.30;;;;;;;;;;4894896;28;99085;-72
2021/12/07 15:21:53;;;;;;;12.25;4.20;;;;;;;;;;4895459;28;98392;-72
2021/12/07 15:24:21;;;;;;;10.82;4.75;;;;;;;;;;4895806;28;99425;-72
2021/12/07 15:26:49;;;;;;;20.95;4.88;;;;;;;;;;4894766;28;99749;-72
2021/12/07 15:29:20;;;;;;;15.77;5.10;;;;;;;;;;4895342;28;98412;-72
2021/12/07 15:31:48;;;;;;;16.50;5.22;;;;;;;;;;4894667;28;99187;-73
2021/12/07 15:34:16;;;;;;;11.75;4.65;;;;;;;;;;4894643;28;99918;-73
2021/12/07 15:36:44;;;;;;;16.77;4.32;;;;;;;;;;4895052;28;98982;-73
2021/12/07 15:39:20;;;;;;;12.38;4.88;;;;;;;;;;4880591;28;100948;-74
2021/12/07 15:41:48;;;;;;;17.35;4.95;;;;;;;;;;4895027;28;98503;-71
2021/12/07 15:44:14;;;;;;;8.27;4.28;;;;;;;;;;4895110;28;99545;-72
2021/12/07 15:46:45;;;;;;;11.90;4.30;;;;;;;;;;4894827;28;99601;-71
2021/12/07 15:49:11;;;;;;;16.47;4.57;;;;;;;;;;4895722;28;97621;-71
2021/12/07 15:51:48;;;;;;;14.82;4.40;;;;;;;;;;4894928;28;98962;-72
2021/12/07 15:54:14;;;;;;;17.83;4.20;;;;;;;;;;4894763;28;99557;-71
2021/12/07 15:56:41;;;;;;;12.10;4.38;;;;;;;;;;4895033;28;100185;-74
2021/12/07 15:59:14;;;;;;;11.38;4.28;;;;;;;;;;4897425;28;100244;-71
2021/12/07 16:01:41;;;;;;;11.73;4.30;;;;;;;;;;4901148;28;99736;-70
2021/12/07 16:04:07;;;;;;;9.05;4.07;;;;;;;;;;4897672;28;99925;-72
2021/12/07 16:06:35;;;;;;;14.10;4.45;;;;;;;;;;4898065;28;100961;-72
2021/12/07 16:09:13;;;;;;;13.27;4.18;;;;;;;;;;4898351;28;98225;-72